aviador You're here:

LFBY Decoded Metar

DAX in FRANCE
Report Time2018-07-17 01:30:00
UTC Time2018-07-17 02:00:25
Flight Rules mvfr MVFR
Wind190° at 04 kt
W.Decomp.*RWY 26: 1.4 kt HW 3.8 kt LCW
W.Rank190° ranks 17
Current wind is below 190° avg. (4.4)
Visibility9999 m
Phenomena:N/A
Clouds:Broken 024 Hf
Overcast 029 Hf
Expected CloudBase > 400 ft AGL from Temp-Dew spread
Ceiling2,400 ft
Temp18°C (ISA +3)
Dew Point17°C (94% RH)
QNH1020 hPa
Density Alt502 ft
Elevation105 ft
Report Wrong Elevation
Raw Report
METAR LFBY 170130Z AUTO 19004KT 9999 // BKN024 OVC029 18/17 Q1020=

Extra information for LFBY:More info

Metar Taf Metar & Taf Last 4 Metars F.Rules Stats Wind Profile Meteogram Temp Stats Airport Information Weather charts Add Link Nearby VenuesMetar ALERT Operation Metar Decoded Social comments